sensor_id;sensor_type;location;lat;lon;timestamp;temperature;humidity
6270;DHT22;3168;51.684;6.954;2023-10-08T00:00:03;17.80;1.00
6270;DHT22;3168;51.684;6.954;2023-10-08T00:02:29;17.80;1.00
6270;DHT22;3168;51.684;6.954;2023-10-08T00:04:54;17.90;1.00
6270;DHT22;3168;51.684;6.954;2023-10-08T00:07:21;17.80;1.00
6270;DHT22;3168;51.684;6.954;2023-10-08T00:09:48;17.80;1.00
6270;DHT22;3168;51.684;6.954;2023-10-08T00:12:14;17.80;1.00
6270;DHT22;3168;51.684;6.954;2023-10-08T00:14:39;17.80;1.00
6270;DHT22;3168;51.684;6.954;2023-10-08T00:17:05;17.80;1.00
6270;DHT22;3168;51.684;6.954;2023-10-08T00:19:31;17.80;1.00
6270;DHT22;3168;51.684;6.954;2023-10-08T00:21:57;17.70;1.00
6270;DHT22;3168;51.684;6.954;2023-10-08T00:24:23;17.70;1.00
6270;DHT22;3168;51.684;6.954;2023-10-08T00:26:48;17.70;1.00
6270;DHT22;3168;51.684;6.954;2023-10-08T00:29:15;17.70;1.00
6270;DHT22;3168;51.684;6.954;2023-10-08T00:31:43;17.70;1.00
6270;DHT22;3168;51.684;6.954;2023-10-08T00:34:08;17.60;1.00
6270;DHT22;3168;51.684;6.954;2023-10-08T00:36:34;17.70;1.00
6270;DHT22;3168;51.684;6.954;2023-10-08T00:39:00;17.70;1.00
6270;DHT22;3168;51.684;6.954;2023-10-08T00:41:26;17.60;1.00
6270;DHT22;3168;51.684;6.954;2023-10-08T00:43:54;17.60;1.00
6270;DHT22;3168;51.684;6.954;2023-10-08T00:46:19;17.60;1.00
6270;DHT22;3168;51.684;6.954;2023-10-08T00:48:51;17.60;1.00
6270;DHT22;3168;51.684;6.954;2023-10-08T00:51:16;17.60;1.00
6270;DHT22;3168;51.684;6.954;2023-10-08T00:54:02;17.60;1.00
6270;DHT22;3168;51.684;6.954;2023-10-08T00:56:32;17.60;1.00
6270;DHT22;3168;51.684;6.954;2023-10-08T00:59:03;17.60;1.00
6270;DHT22;3168;51.684;6.954;2023-10-08T01:01:29;17.60;1.00
6270;DHT22;3168;51.684;6.954;2023-10-08T01:03:56;17.50;1.00
6270;DHT22;3168;51.684;6.954;2023-10-08T01:06:21;17.40;1.00
6270;DHT22;3168;51.684;6.954;2023-10-08T01:08:47;17.40;1.00
6270;DHT22;3168;51.684;6.954;2023-10-08T01:11:21;17.50;1.00
6270;DHT22;3168;51.684;6.954;2023-10-08T01:14:01;17.50;1.00
6270;DHT22;3168;51.684;6.954;2023-10-08T01:16:26;17.50;1.00
6270;DHT22;3168;51.684;6.954;2023-10-08T01:18:52;17.50;1.00
6270;DHT22;3168;51.684;6.954;2023-10-08T01:21:18;17.50;1.00
6270;DHT22;3168;51.684;6.954;2023-10-08T01:23:44;17.60;1.00
6270;DHT22;3168;51.684;6.954;2023-10-08T01:26:10;17.60;1.00
6270;DHT22;3168;51.684;6.954;2023-10-08T01:28:36;17.60;1.00
6270;DHT22;3168;51.684;6.954;2023-10-08T01:31:01;17.50;1.00
6270;DHT22;3168;51.684;6.954;2023-10-08T01:33:28;17.50;1.00
6270;DHT22;3168;51.684;6.954;2023-10-08T01:35:54;17.50;1.00
6270;DHT22;3168;51.684;6.954;2023-10-08T01:38:20;17.50;1.00
6270;DHT22;3168;51.684;6.954;2023-10-08T01:40:51;17.40;1.00
6270;DHT22;3168;51.684;6.954;2023-10-08T01:43:17;17.40;1.00
6270;DHT22;3168;51.684;6.954;2023-10-08T01:45:43;17.40;1.00
6270;DHT22;3168;51.684;6.954;2023-10-08T01:48:08;17.40;1.00
6270;DHT22;3168;51.684;6.954;2023-10-08T01:50:36;17.40;1.00
6270;DHT22;3168;51.684;6.954;2023-10-08T01:53:01;17.50;1.00
6270;DHT22;3168;51.684;6.954;2023-10-08T01:55:27;17.40;1.00
6270;DHT22;3168;51.684;6.954;2023-10-08T01:57:53;17.30;1.00
6270;DHT22;3168;51.684;6.954;2023-10-08T02:00:19;17.40;1.00
6270;DHT22;3168;51.684;6.954;2023-10-08T02:02:46;17.30;1.00
6270;DHT22;3168;51.684;6.954;2023-10-08T02:05:12;17.30;1.00
6270;DHT22;3168;51.684;6.954;2023-10-08T02:07:38;17.30;1.00
6270;DHT22;3168;51.684;6.954;2023-10-08T02:10:04;17.20;1.00
6270;DHT22;3168;51.684;6.954;2023-10-08T02:12:30;17.20;1.00
6270;DHT22;3168;51.684;6.954;2023-10-08T02:14:56;17.20;1.00
6270;DHT22;3168;51.684;6.954;2023-10-08T02:17:21;17.20;1.00
6270;DHT22;3168;51.684;6.954;2023-10-08T02:19:47;17.20;1.00
6270;DHT22;3168;51.684;6.954;2023-10-08T02:22:13;17.20;1.00
6270;DHT22;3168;51.684;6.954;2023-10-08T02:24:39;17.10;1.00
6270;DHT22;3168;51.684;6.954;2023-10-08T02:27:05;17.10;1.00
6270;DHT22;3168;51.684;6.954;2023-10-08T02:29:30;17.10;1.00
6270;DHT22;3168;51.684;6.954;2023-10-08T02:31:57;17.10;1.00
6270;DHT22;3168;51.684;6.954;2023-10-08T02:34:23;17.10;1.00
6270;DHT22;3168;51.684;6.954;2023-10-08T02:36:48;17.00;1.00
6270;DHT22;3168;51.684;6.954;2023-10-08T02:39:14;17.00;1.00
6270;DHT22;3168;51.684;6.954;2023-10-08T02:41:42;17.00;1.00
6270;DHT22;3168;51.684;6.954;2023-10-08T02:44:08;17.00;1.00
6270;DHT22;3168;51.684;6.954;2023-10-08T02:46:34;17.00;1.00
6270;DHT22;3168;51.684;6.954;2023-10-08T02:48:59;17.00;1.00
6270;DHT22;3168;51.684;6.954;2023-10-08T02:51:25;17.00;1.00
6270;DHT22;3168;51.684;6.954;2023-10-08T02:53:51;17.00;1.00
6270;DHT22;3168;51.684;6.954;2023-10-08T02:56:17;17.00;1.00
6270;DHT22;3168;51.684;6.954;2023-10-08T02:58:43;17.00;1.00
6270;DHT22;3168;51.684;6.954;2023-10-08T03:01:09;17.00;1.00
6270;DHT22;3168;51.684;6.954;2023-10-08T03:03:35;17.00;1.00
6270;DHT22;3168;51.684;6.954;2023-10-08T03:06:01;17.00;1.00
6270;DHT22;3168;51.684;6.954;2023-10-08T03:08:27;17.10;1.00
6270;DHT22;3168;51.684;6.954;2023-10-08T03:10:53;17.10;1.00
6270;DHT22;3168;51.684;6.954;2023-10-08T03:13:22;17.00;1.00
6270;DHT22;3168;51.684;6.954;2023-10-08T03:15:47;17.00;1.00
6270;DHT22;3168;51.684;6.954;2023-10-08T03:18:19;17.00;1.00
6270;DHT22;3168;51.684;6.954;2023-10-08T03:20:45;17.00;1.00
6270;DHT22;3168;51.684;6.954;2023-10-08T03:23:13;16.90;1.00
6270;DHT22;3168;51.684;6.954;2023-10-08T03:25:39;16.90;1.00
6270;DHT22;3168;51.684;6.954;2023-10-08T03:28:05;16.80;1.00
6270;DHT22;3168;51.684;6.954;2023-10-08T03:30:31;16.80;1.00
6270;DHT22;3168;51.684;6.954;2023-10-08T03:32:57;16.80;1.00
6270;DHT22;3168;51.684;6.954;2023-10-08T03:35:22;16.80;1.00
6270;DHT22;3168;51.684;6.954;2023-10-08T03:37:48;16.80;1.00
6270;DHT22;3168;51.684;6.954;2023-10-08T03:40:14;16.80;1.00
6270;DHT22;3168;51.684;6.954;2023-10-08T03:42:46;16.80;1.00
6270;DHT22;3168;51.684;6.954;2023-10-08T03:45:12;16.70;1.00
6270;DHT22;3168;51.684;6.954;2023-10-08T03:47:38;16.80;1.00
6270;DHT22;3168;51.684;6.954;2023-10-08T03:50:05;16.70;1.00
6270;DHT22;3168;51.684;6.954;2023-10-08T03:52:31;16.60;1.00
6270;DHT22;3168;51.684;6.954;2023-10-08T03:54:57;16.60;1.00
6270;DHT22;3168;51.684;6.954;2023-10-08T03:57:29;16.50;1.00
6270;DHT22;3168;51.684;6.954;2023-10-08T03:59:54;16.60;1.00
6270;DHT22;3168;51.684;6.954;2023-10-08T04:02:20;16.60;1.00
6270;DHT22;3168;51.684;6.954;2023-10-08T04:04:48;16.60;1.00
6270;DHT22;3168;51.684;6.954;2023-10-08T04:07:16;16.50;1.00
6270;DHT22;3168;51.684;6.954;2023-10-08T04:09:57;16.60;1.00
6270;DHT22;3168;51.684;6.954;2023-10-08T04:12:35;16.60;1.00
6270;DHT22;3168;51.684;6.954;2023-10-08T04:15:01;16.50;1.00
6270;DHT22;3168;51.684;6.954;2023-10-08T04:17:26;16.50;1.00
6270;DHT22;3168;51.684;6.954;2023-10-08T04:19:53;16.50;1.00
6270;DHT22;3168;51.684;6.954;2023-10-08T04:22:18;16.50;1.00
6270;DHT22;3168;51.684;6.954;2023-10-08T04:24:44;16.40;1.00
6270;DHT22;3168;51.684;6.954;2023-10-08T04:27:10;16.40;1.00
6270;DHT22;3168;51.684;6.954;2023-10-08T04:29:36;16.40;1.00
6270;DHT22;3168;51.684;6.954;2023-10-08T04:32:03;16.40;1.00
6270;DHT22;3168;51.684;6.954;2023-10-08T04:34:33;16.30;1.00
6270;DHT22;3168;51.684;6.954;2023-10-08T04:36:59;16.40;1.00
6270;DHT22;3168;51.684;6.954;2023-10-08T04:39:24;16.40;1.00
6270;DHT22;3168;51.684;6.954;2023-10-08T04:41:52;16.30;1.00
6270;DHT22;3168;51.684;6.954;2023-10-08T04:44:20;16.40;1.00
6270;DHT22;3168;51.684;6.954;2023-10-08T04:46:46;16.30;1.00
6270;DHT22;3168;51.684;6.954;2023-10-08T04:49:12;16.30;1.00
6270;DHT22;3168;51.684;6.954;2023-10-08T04:51:38;16.30;1.00
6270;DHT22;3168;51.684;6.954;2023-10-08T04:54:04;16.30;1.00
6270;DHT22;3168;51.684;6.954;2023-10-08T04:56:30;16.30;1.00
6270;DHT22;3168;51.684;6.954;2023-10-08T04:58:55;16.30;1.00
6270;DHT22;3168;51.684;6.954;2023-10-08T05:01:21;16.30;1.00
6270;DHT22;3168;51.684;6.954;2023-10-08T05:03:48;16.30;1.00
6270;DHT22;3168;51.684;6.954;2023-10-08T05:06:34;16.30;1.00
6270;DHT22;3168;51.684;6.954;2023-10-08T05:09:15;16.20;1.00
6270;DHT22;3168;51.684;6.954;2023-10-08T05:11:54;16.20;1.00
6270;DHT22;3168;51.684;6.954;2023-10-08T05:14:23;16.20;1.00
6270;DHT22;3168;51.684;6.954;2023-10-08T05:16:55;16.20;1.00
6270;DHT22;3168;51.684;6.954;2023-10-08T05:19:26;16.20;1.00
6270;DHT22;3168;51.684;6.954;2023-10-08T05:21:57;16.20;1.00
6270;DHT22;3168;51.684;6.954;2023-10-08T05:24:27;16.20;1.00
6270;DHT22;3168;51.684;6.954;2023-10-08T05:26:53;16.20;1.00
6270;DHT22;3168;51.684;6.954;2023-10-08T05:29:19;16.30;1.00
6270;DHT22;3168;51.684;6.954;2023-10-08T05:31:50;16.30;1.00
6270;DHT22;3168;51.684;6.954;2023-10-08T05:34:16;16.30;1.00
6270;DHT22;3168;51.684;6.954;2023-10-08T05:36:44;16.40;1.00
6270;DHT22;3168;51.684;6.954;2023-10-08T05:39:17;16.30;1.00
6270;DHT22;3168;51.684;6.954;2023-10-08T05:41:49;16.20;1.00
6270;DHT22;3168;51.684;6.954;2023-10-08T05:44:17;16.20;1.00
6270;DHT22;3168;51.684;6.954;2023-10-08T05:46:52;16.20;1.00
6270;DHT22;3168;51.684;6.954;2023-10-08T05:49:33;16.20;1.00
6270;DHT22;3168;51.684;6.954;2023-10-08T05:52:02;16.20;1.00
6270;DHT22;3168;51.684;6.954;2023-10-08T05:54:35;16.20;1.00
6270;DHT22;3168;51.684;6.954;2023-10-08T05:57:03;16.10;1.00
6270;DHT22;3168;51.684;6.954;2023-10-08T05:59:33;16.10;1.00
6270;DHT22;3168;51.684;6.954;2023-10-08T06:01:59;16.20;1.00
6270;DHT22;3168;51.684;6.954;2023-10-08T06:04:25;16.10;1.00
6270;DHT22;3168;51.684;6.954;2023-10-08T06:06:56;16.10;1.00
6270;DHT22;3168;51.684;6.954;2023-10-08T06:09:24;16.00;1.00
6270;DHT22;3168;51.684;6.954;2023-10-08T06:11:49;16.00;1.00
6270;DHT22;3168;51.684;6.954;2023-10-08T06:14:22;15.90;1.00
6270;DHT22;3168;51.684;6.954;2023-10-08T06:16:52;16.00;1.00
6270;DHT22;3168;51.684;6.954;2023-10-08T06:19:18;16.00;1.00
6270;DHT22;3168;51.684;6.954;2023-10-08T06:21:44;15.90;1.00
6270;DHT22;3168;51.684;6.954;2023-10-08T06:24:10;15.90;1.00
6270;DHT22;3168;51.684;6.954;2023-10-08T06:26:37;15.90;1.00
6270;DHT22;3168;51.684;6.954;2023-10-08T06:29:02;15.80;1.00
6270;DHT22;3168;51.684;6.954;2023-10-08T06:31:28;15.90;1.00
6270;DHT22;3168;51.684;6.954;2023-10-08T06:33:54;15.90;1.00
6270;DHT22;3168;51.684;6.954;2023-10-08T06:36:20;15.80;1.00
6270;DHT22;3168;51.684;6.954;2023-10-08T06:38:46;15.70;1.00
6270;DHT22;3168;51.684;6.954;2023-10-08T06:41:13;15.30;1.00
6270;DHT22;3168;51.684;6.954;2023-10-08T06:43:41;15.00;1.00
6270;DHT22;3168;51.684;6.954;2023-10-08T06:46:09;14.60;1.00
6270;DHT22;3168;51.684;6.954;2023-10-08T06:48:34;14.60;1.00
6270;DHT22;3168;51.684;6.954;2023-10-08T06:51:00;14.50;1.00
6270;DHT22;3168;51.684;6.954;2023-10-08T06:53:26;14.30;1.00
6270;DHT22;3168;51.684;6.954;2023-10-08T06:55:52;14.20;1.00
6270;DHT22;3168;51.684;6.954;2023-10-08T06:58:21;14.10;1.00
6270;DHT22;3168;51.684;6.954;2023-10-08T07:00:47;14.00;1.00
6270;DHT22;3168;51.684;6.954;2023-10-08T07:03:13;13.90;1.00
6270;DHT22;3168;51.684;6.954;2023-10-08T07:05:39;14.00;1.00
6270;DHT22;3168;51.684;6.954;2023-10-08T07:08:05;13.90;1.00
6270;DHT22;3168;51.684;6.954;2023-10-08T07:10:32;13.90;1.00
6270;DHT22;3168;51.684;6.954;2023-10-08T07:12:57;13.90;1.00
6270;DHT22;3168;51.684;6.954;2023-10-08T07:15:23;14.20;1.00
6270;DHT22;3168;51.684;6.954;2023-10-08T07:17:49;14.20;1.00
6270;DHT22;3168;51.684;6.954;2023-10-08T07:20:14;14.20;1.00
6270;DHT22;3168;51.684;6.954;2023-10-08T07:22:40;14.20;1.00
6270;DHT22;3168;51.684;6.954;2023-10-08T07:25:06;14.20;1.00
6270;DHT22;3168;51.684;6.954;2023-10-08T07:27:33;14.50;1.00
6270;DHT22;3168;51.684;6.954;2023-10-08T07:29:59;14.50;1.00
6270;DHT22;3168;51.684;6.954;2023-10-08T07:32:25;14.50;1.00
6270;DHT22;3168;51.684;6.954;2023-10-08T07:34:51;14.50;1.00
6270;DHT22;3168;51.684;6.954;2023-10-08T07:37:16;14.50;1.00
6270;DHT22;3168;51.684;6.954;2023-10-08T07:39:42;14.50;1.00
6270;DHT22;3168;51.684;6.954;2023-10-08T07:42:10;14.60;1.00
6270;DHT22;3168;51.684;6.954;2023-10-08T07:44:37;14.70;1.00
6270;DHT22;3168;51.684;6.954;2023-10-08T07:47:02;14.70;1.00
6270;DHT22;3168;51.684;6.954;2023-10-08T07:49:31;14.60;1.00
6270;DHT22;3168;51.684;6.954;2023-10-08T07:51:57;14.60;1.00
6270;DHT22;3168;51.684;6.954;2023-10-08T07:54:23;14.60;1.00
6270;DHT22;3168;51.684;6.954;2023-10-08T07:56:49;14.50;1.00
6270;DHT22;3168;51.684;6.954;2023-10-08T07:59:15;14.60;1.00
6270;DHT22;3168;51.684;6.954;2023-10-08T08:01:41;14.60;1.00
6270;DHT22;3168;51.684;6.954;2023-10-08T08:04:10;14.60;1.00
6270;DHT22;3168;51.684;6.954;2023-10-08T08:06:35;14.60;1.00
6270;DHT22;3168;51.684;6.954;2023-10-08T08:09:02;14.60;1.00
6270;DHT22;3168;51.684;6.954;2023-10-08T08:11:27;14.60;1.00
6270;DHT22;3168;51.684;6.954;2023-10-08T08:13:53;14.60;1.00
6270;DHT22;3168;51.684;6.954;2023-10-08T08:16:19;14.60;1.00
6270;DHT22;3168;51.684;6.954;2023-10-08T08:18:48;14.60;1.00
6270;DHT22;3168;51.684;6.954;2023-10-08T08:21:13;14.50;1.00
6270;DHT22;3168;51.684;6.954;2023-10-08T08:23:38;14.60;1.00
6270;DHT22;3168;51.684;6.954;2023-10-08T08:26:04;14.50;1.00
6270;DHT22;3168;51.684;6.954;2023-10-08T08:28:32;14.50;1.00
6270;DHT22;3168;51.684;6.954;2023-10-08T08:31:03;14.50;1.00
6270;DHT22;3168;51.684;6.954;2023-10-08T08:33:28;14.50;1.00
6270;DHT22;3168;51.684;6.954;2023-10-08T08:35:58;14.50;1.00
6270;DHT22;3168;51.684;6.954;2023-10-08T08:38:23;14.60;1.00
6270;DHT22;3168;51.684;6.954;2023-10-08T08:40:49;14.60;1.00
6270;DHT22;3168;51.684;6.954;2023-10-08T08:43:15;14.50;1.00
6270;DHT22;3168;51.684;6.954;2023-10-08T08:45:41;14.70;1.00
6270;DHT22;3168;51.684;6.954;2023-10-08T08:48:07;14.70;1.00
6270;DHT22;3168;51.684;6.954;2023-10-08T08:50:33;14.70;1.00
6270;DHT22;3168;51.684;6.954;2023-10-08T08:52:59;14.60;1.00
6270;DHT22;3168;51.684;6.954;2023-10-08T08:55:25;14.70;1.00
6270;DHT22;3168;51.684;6.954;2023-10-08T08:57:52;14.80;1.00
6270;DHT22;3168;51.684;6.954;2023-10-08T09:00:18;14.70;1.00
6270;DHT22;3168;51.684;6.954;2023-10-08T09:02:44;14.80;1.00
6270;DHT22;3168;51.684;6.954;2023-10-08T09:05:09;14.60;1.00
6270;DHT22;3168;51.684;6.954;2023-10-08T09:07:56;14.60;1.00
6270;DHT22;3168;51.684;6.954;2023-10-08T09:10:22;14.40;1.00
6270;DHT22;3168;51.684;6.954;2023-10-08T09:12:47;14.60;1.00
6270;DHT22;3168;51.684;6.954;2023-10-08T09:15:13;14.60;1.00
6270;DHT22;3168;51.684;6.954;2023-10-08T09:17:39;14.60;1.00
6270;DHT22;3168;51.684;6.954;2023-10-08T09:20:06;14.50;1.00
6270;DHT22;3168;51.684;6.954;2023-10-08T09:22:32;14.50;1.00
6270;DHT22;3168;51.684;6.954;2023-10-08T09:24:58;14.40;1.00
6270;DHT22;3168;51.684;6.954;2023-10-08T09:27:24;14.50;1.00
6270;DHT22;3168;51.684;6.954;2023-10-08T09:29:49;14.50;1.00
6270;DHT22;3168;51.684;6.954;2023-10-08T09:32:15;14.50;1.00
6270;DHT22;3168;51.684;6.954;2023-10-08T09:34:41;14.30;1.00
6270;DHT22;3168;51.684;6.954;2023-10-08T09:37:07;14.40;1.00
6270;DHT22;3168;51.684;6.954;2023-10-08T09:39:33;14.40;1.00
6270;DHT22;3168;51.684;6.954;2023-10-08T09:42:00;14.40;1.00
6270;DHT22;3168;51.684;6.954;2023-10-08T09:44:25;14.30;1.00
6270;DHT22;3168;51.684;6.954;2023-10-08T09:46:53;14.30;1.00
6270;DHT22;3168;51.684;6.954;2023-10-08T09:49:18;14.30;1.00
6270;DHT22;3168;51.684;6.954;2023-10-08T09:51:43;14.20;1.00
6270;DHT22;3168;51.684;6.954;2023-10-08T09:54:10;14.20;1.00
6270;DHT22;3168;51.684;6.954;2023-10-08T09:56:35;14.30;1.00
6270;DHT22;3168;51.684;6.954;2023-10-08T09:59:01;14.50;1.00
6270;DHT22;3168;51.684;6.954;2023-10-08T10:01:27;14.40;1.00
6270;DHT22;3168;51.684;6.954;2023-10-08T10:03:53;14.50;1.00
6270;DHT22;3168;51.684;6.954;2023-10-08T10:06:18;14.60;1.00
6270;DHT22;3168;51.684;6.954;2023-10-08T10:08:45;14.70;1.00
6270;DHT22;3168;51.684;6.954;2023-10-08T10:11:10;14.70;1.00
6270;DHT22;3168;51.684;6.954;2023-10-08T10:13:44;14.50;1.00
6270;DHT22;3168;51.684;6.954;2023-10-08T10:16:10;14.40;1.00
6270;DHT22;3168;51.684;6.954;2023-10-08T10:18:36;14.50;1.00
6270;DHT22;3168;51.684;6.954;2023-10-08T10:21:24;14.70;1.00
6270;DHT22;3168;51.684;6.954;2023-10-08T10:23:49;14.70;1.00
6270;DHT22;3168;51.684;6.954;2023-10-08T10:26:30;14.80;1.00
6270;DHT22;3168;51.684;6.954;2023-10-08T10:29:19;14.90;1.00
6270;DHT22;3168;51.684;6.954;2023-10-08T10:31:47;14.90;1.00
6270;DHT22;3168;51.684;6.954;2023-10-08T10:34:14;14.70;1.00
6270;DHT22;3168;51.684;6.954;2023-10-08T10:36:39;14.70;1.00
6270;DHT22;3168;51.684;6.954;2023-10-08T10:39:06;14.60;1.00
6270;DHT22;3168;51.684;6.954;2023-10-08T10:41:33;14.60;1.00
6270;DHT22;3168;51.684;6.954;2023-10-08T10:43:59;14.60;1.00
6270;DHT22;3168;51.684;6.954;2023-10-08T10:46:25;14.60;1.00
6270;DHT22;3168;51.684;6.954;2023-10-08T10:48:55;14.70;1.00
6270;DHT22;3168;51.684;6.954;2023-10-08T10:51:23;14.90;1.00
6270;DHT22;3168;51.684;6.954;2023-10-08T10:53:49;15.00;1.00
6270;DHT22;3168;51.684;6.954;2023-10-08T10:56:21;15.10;1.00
6270;DHT22;3168;51.684;6.954;2023-10-08T10:58:47;15.30;1.00
6270;DHT22;3168;51.684;6.954;2023-10-08T11:01:13;15.30;1.00
6270;DHT22;3168;51.684;6.954;2023-10-08T11:03:46;15.30;1.00
6270;DHT22;3168;51.684;6.954;2023-10-08T11:06:11;15.30;1.00
6270;DHT22;3168;51.684;6.954;2023-10-08T11:08:37;15.30;1.00
6270;DHT22;3168;51.684;6.954;2023-10-08T11:11:04;15.60;1.00
6270;DHT22;3168;51.684;6.954;2023-10-08T11:13:32;15.60;1.00
6270;DHT22;3168;51.684;6.954;2023-10-08T11:15:56;15.90;1.00
6270;DHT22;3168;51.684;6.954;2023-10-08T11:18:23;15.90;1.00
6270;DHT22;3168;51.684;6.954;2023-10-08T11:20:49;15.60;1.00
6270;DHT22;3168;51.684;6.954;2023-10-08T11:25:54;15.40;1.00
6270;DHT22;3168;51.684;6.954;2023-10-08T11:28:19;15.40;1.00
6270;DHT22;3168;51.684;6.954;2023-10-08T11:30:45;15.50;1.00
6270;DHT22;3168;51.684;6.954;2023-10-08T11:33:11;15.40;1.00
6270;DHT22;3168;51.684;6.954;2023-10-08T11:35:37;15.40;1.00
6270;DHT22;3168;51.684;6.954;2023-10-08T11:38:03;15.60;1.00
6270;DHT22;3168;51.684;6.954;2023-10-08T11:40:29;15.50;1.00
6270;DHT22;3168;51.684;6.954;2023-10-08T11:42:55;15.60;1.00
6270;DHT22;3168;51.684;6.954;2023-10-08T11:45:20;15.70;1.00
6270;DHT22;3168;51.684;6.954;2023-10-08T11:47:47;15.80;1.00
6270;DHT22;3168;51.684;6.954;2023-10-08T11:50:15;15.80;1.00
6270;DHT22;3168;51.684;6.954;2023-10-08T11:52:43;15.70;1.00
6270;DHT22;3168;51.684;6.954;2023-10-08T11:55:09;15.70;1.00
6270;DHT22;3168;51.684;6.954;2023-10-08T11:57:35;15.90;1.00
6270;DHT22;3168;51.684;6.954;2023-10-08T12:00:02;15.90;1.00
6270;DHT22;3168;51.684;6.954;2023-10-08T12:02:27;15.90;1.00
6270;DHT22;3168;51.684;6.954;2023-10-08T12:04:53;16.00;1.00
6270;DHT22;3168;51.684;6.954;2023-10-08T12:07:19;16.10;1.00
6270;DHT22;3168;51.684;6.954;2023-10-08T12:09:45;16.00;1.00
6270;DHT22;3168;51.684;6.954;2023-10-08T12:12:10;16.00;1.00
6270;DHT22;3168;51.684;6.954;2023-10-08T12:14:36;15.80;1.00
6270;DHT22;3168;51.684;6.954;2023-10-08T12:17:02;15.70;1.00
6270;DHT22;3168;51.684;6.954;2023-10-08T12:19:29;15.90;1.00
6270;DHT22;3168;51.684;6.954;2023-10-08T12:21:54;15.90;1.00
6270;DHT22;3168;51.684;6.954;2023-10-08T12:24:20;15.90;1.00
6270;DHT22;3168;51.684;6.954;2023-10-08T12:26:46;15.70;1.00
6270;DHT22;3168;51.684;6.954;2023-10-08T12:29:13;15.90;1.00
6270;DHT22;3168;51.684;6.954;2023-10-08T12:31:40;15.80;1.00
6270;DHT22;3168;51.684;6.954;2023-10-08T12:34:05;15.90;1.00
6270;DHT22;3168;51.684;6.954;2023-10-08T12:36:31;15.80;1.00
6270;DHT22;3168;51.684;6.954;2023-10-08T12:38:59;15.80;1.00
6270;DHT22;3168;51.684;6.954;2023-10-08T12:41:25;15.80;1.00
6270;DHT22;3168;51.684;6.954;2023-10-08T12:43:50;15.70;1.00
6270;DHT22;3168;51.684;6.954;2023-10-08T12:46:18;15.70;1.00
6270;DHT22;3168;51.684;6.954;2023-10-08T12:48:45;15.80;1.00
6270;DHT22;3168;51.684;6.954;2023-10-08T12:51:11;15.90;1.00
6270;DHT22;3168;51.684;6.954;2023-10-08T12:53:37;15.90;1.00
6270;DHT22;3168;51.684;6.954;2023-10-08T12:56:03;15.90;1.00
6270;DHT22;3168;51.684;6.954;2023-10-08T12:58:29;15.90;1.00
6270;DHT22;3168;51.684;6.954;2023-10-08T13:00:55;15.90;1.00
6270;DHT22;3168;51.684;6.954;2023-10-08T13:03:22;16.10;1.00
6270;DHT22;3168;51.684;6.954;2023-10-08T13:05:47;16.00;1.00
6270;DHT22;3168;51.684;6.954;2023-10-08T13:08:13;16.30;1.00
6270;DHT22;3168;51.684;6.954;2023-10-08T13:10:39;16.40;1.00
6270;DHT22;3168;51.684;6.954;2023-10-08T13:13:05;16.60;1.00
6270;DHT22;3168;51.684;6.954;2023-10-08T13:15:31;16.50;1.00
6270;DHT22;3168;51.684;6.954;2023-10-08T13:17:56;16.30;1.00
6270;DHT22;3168;51.684;6.954;2023-10-08T13:20:22;16.30;1.00
6270;DHT22;3168;51.684;6.954;2023-10-08T13:22:48;16.30;1.00
6270;DHT22;3168;51.684;6.954;2023-10-08T13:25:14;16.30;1.00
6270;DHT22;3168;51.684;6.954;2023-10-08T13:27:40;16.30;1.00
6270;DHT22;3168;51.684;6.954;2023-10-08T13:30:06;16.20;1.00
6270;DHT22;3168;51.684;6.954;2023-10-08T13:32:32;16.20;1.00
6270;DHT22;3168;51.684;6.954;2023-10-08T13:34:58;16.20;1.00
6270;DHT22;3168;51.684;6.954;2023-10-08T13:37:24;16.20;1.00
6270;DHT22;3168;51.684;6.954;2023-10-08T13:39:50;16.20;1.00
6270;DHT22;3168;51.684;6.954;2023-10-08T13:42:16;16.20;1.00
6270;DHT22;3168;51.684;6.954;2023-10-08T13:44:41;16.00;1.00
6270;DHT22;3168;51.684;6.954;2023-10-08T13:47:07;15.90;1.00
6270;DHT22;3168;51.684;6.954;2023-10-08T13:49:33;16.00;1.00
6270;DHT22;3168;51.684;6.954;2023-10-08T13:51:59;16.00;1.00
6270;DHT22;3168;51.684;6.954;2023-10-08T13:54:25;16.00;1.00
6270;DHT22;3168;51.684;6.954;2023-10-08T13:56:51;16.00;1.00
6270;DHT22;3168;51.684;6.954;2023-10-08T13:59:17;16.10;1.00
6270;DHT22;3168;51.684;6.954;2023-10-08T14:01:44;16.00;1.00
6270;DHT22;3168;51.684;6.954;2023-10-08T14:04:09;16.00;1.00
6270;DHT22;3168;51.684;6.954;2023-10-08T14:06:35;15.90;1.00
6270;DHT22;3168;51.684;6.954;2023-10-08T14:09:01;15.90;1.00
6270;DHT22;3168;51.684;6.954;2023-10-08T14:11:27;16.10;1.00
6270;DHT22;3168;51.684;6.954;2023-10-08T14:13:54;16.00;1.00
6270;DHT22;3168;51.684;6.954;2023-10-08T14:16:20;16.10;1.00
6270;DHT22;3168;51.684;6.954;2023-10-08T14:18:45;16.10;1.00
6270;DHT22;3168;51.684;6.954;2023-10-08T14:21:11;16.00;1.00
6270;DHT22;3168;51.684;6.954;2023-10-08T14:23:37;15.90;1.00
6270;DHT22;3168;51.684;6.954;2023-10-08T14:26:06;15.90;1.00
6270;DHT22;3168;51.684;6.954;2023-10-08T14:28:32;15.90;1.00
6270;DHT22;3168;51.684;6.954;2023-10-08T14:31:04;16.10;1.00
6270;DHT22;3168;51.684;6.954;2023-10-08T14:33:30;16.00;1.00
6270;DHT22;3168;51.684;6.954;2023-10-08T14:35:56;16.00;1.00
6270;DHT22;3168;51.684;6.954;2023-10-08T14:38:27;16.10;1.00
6270;DHT22;3168;51.684;6.954;2023-10-08T14:40:59;16.10;1.00
6270;DHT22;3168;51.684;6.954;2023-10-08T14:43:31;16.20;1.00
6270;DHT22;3168;51.684;6.954;2023-10-08T14:45:57;16.20;1.00
6270;DHT22;3168;51.684;6.954;2023-10-08T14:48:23;16.10;1.00
6270;DHT22;3168;51.684;6.954;2023-10-08T14:50:49;16.10;1.00
6270;DHT22;3168;51.684;6.954;2023-10-08T14:53:15;16.20;1.00
6270;DHT22;3168;51.684;6.954;2023-10-08T14:55:41;16.20;1.00
6270;DHT22;3168;51.684;6.954;2023-10-08T14:58:07;16.00;1.00
6270;DHT22;3168;51.684;6.954;2023-10-08T15:00:34;15.80;1.00
6270;DHT22;3168;51.684;6.954;2023-10-08T15:03:00;15.70;1.00
6270;DHT22;3168;51.684;6.954;2023-10-08T15:05:26;15.70;1.00
6270;DHT22;3168;51.684;6.954;2023-10-08T15:07:52;15.80;1.00
6270;DHT22;3168;51.684;6.954;2023-10-08T15:10:18;15.80;1.00
6270;DHT22;3168;51.684;6.954;2023-10-08T15:12:44;15.80;1.00
6270;DHT22;3168;51.684;6.954;2023-10-08T15:15:11;15.90;1.00
6270;DHT22;3168;51.684;6.954;2023-10-08T15:17:40;15.80;1.00
6270;DHT22;3168;51.684;6.954;2023-10-08T15:20:06;15.90;1.00
6270;DHT22;3168;51.684;6.954;2023-10-08T15:22:32;15.90;1.00
6270;DHT22;3168;51.684;6.954;2023-10-08T15:24:57;15.90;1.00
6270;DHT22;3168;51.684;6.954;2023-10-08T15:27:23;15.90;1.00
6270;DHT22;3168;51.684;6.954;2023-10-08T15:29:49;15.90;1.00
6270;DHT22;3168;51.684;6.954;2023-10-08T15:32:15;15.80;1.00
6270;DHT22;3168;51.684;6.954;2023-10-08T15:34:41;15.80;1.00
6270;DHT22;3168;51.684;6.954;2023-10-08T15:37:07;15.80;1.00
6270;DHT22;3168;51.684;6.954;2023-10-08T15:39:32;15.80;1.00
6270;DHT22;3168;51.684;6.954;2023-10-08T15:41:58;15.70;1.00
6270;DHT22;3168;51.684;6.954;2023-10-08T15:44:25;15.60;1.00
6270;DHT22;3168;51.684;6.954;2023-10-08T15:46:51;15.60;1.00
6270;DHT22;3168;51.684;6.954;2023-10-08T15:49:17;15.60;1.00
6270;DHT22;3168;51.684;6.954;2023-10-08T15:51:44;15.70;1.00
6270;DHT22;3168;51.684;6.954;2023-10-08T15:54:09;15.70;1.00
6270;DHT22;3168;51.684;6.954;2023-10-08T15:56:35;15.70;1.00
6270;DHT22;3168;51.684;6.954;2023-10-08T15:59:01;15.60;1.00
6270;DHT22;3168;51.684;6.954;2023-10-08T16:01:27;15.60;1.00
6270;DHT22;3168;51.684;6.954;2023-10-08T16:03:53;15.60;1.00
6270;DHT22;3168;51.684;6.954;2023-10-08T16:06:18;15.50;1.00
6270;DHT22;3168;51.684;6.954;2023-10-08T16:08:45;15.60;1.00
6270;DHT22;3168;51.684;6.954;2023-10-08T16:11:10;15.60;1.00
6270;DHT22;3168;51.684;6.954;2023-10-08T16:13:36;15.50;1.00
6270;DHT22;3168;51.684;6.954;2023-10-08T16:16:02;15.50;1.00